createdAt,value
2023-04-02T00:02:54.639Z,53.68
2023-04-02T00:08:00.503Z,53.50
2023-04-02T00:13:12.086Z,53.59
2023-04-02T00:18:20.778Z,53.63
2023-04-02T00:23:23.668Z,53.61
2023-04-02T00:28:26.544Z,53.63
2023-04-02T00:33:31.917Z,54.25
2023-04-02T00:38:35.354Z,53.61
2023-04-02T00:43:39.501Z,54.04
2023-04-02T00:49:05.757Z,53.74
2023-04-02T00:54:16.006Z,53.28
2023-04-02T00:59:26.950Z,53.41
2023-04-02T01:04:36.765Z,53.55
2023-04-02T01:10:10.869Z,53.27
2023-04-02T01:15:20.973Z,52.71
2023-04-02T01:20:47.845Z,52.82
2023-04-02T01:26:15.156Z,53.19
2023-04-02T01:31:17.834Z,53.53
2023-04-02T01:36:52.280Z,52.86
2023-04-02T01:42:06.302Z,52.80
2023-04-02T01:47:13.473Z,52.66
2023-04-02T01:52:26.682Z,52.68
2023-04-02T01:57:29.145Z,52.85
2023-04-02T02:02:31.504Z,51.92
2023-04-02T02:07:33.719Z,51.94
2023-04-02T02:12:36.576Z,51.85
2023-04-02T02:17:39.057Z,51.88
2023-04-02T02:22:46.377Z,52.12
2023-04-02T02:27:57.034Z,51.84
2023-04-02T02:33:22.216Z,51.97
2023-04-02T02:38:58.331Z,51.75
2023-04-02T02:44:10.847Z,51.76
2023-04-02T02:49:19.512Z,51.48
2023-04-02T02:54:22.286Z,51.46
2023-04-02T02:59:25.081Z,51.38
2023-04-02T03:04:30.808Z,51.13
2023-04-02T03:09:44.776Z,50.89
2023-04-02T03:14:57.609Z,51.01
2023-04-02T03:20:31.374Z,51.07
2023-04-02T03:25:44.821Z,51.49
2023-04-02T03:31:22.341Z,51.62
2023-04-02T03:36:32.046Z,51.22
2023-04-02T03:42:01.988Z,51.13
2023-04-02T03:47:27.374Z,51.36
2023-04-02T03:52:31.311Z,51.64
2023-04-02T03:57:43.614Z,51.57
2023-04-02T04:02:49.505Z,51.46
2023-04-02T04:08:00.087Z,51.71
2023-04-02T04:13:08.923Z,51.54
2023-04-02T04:18:35.191Z,51.73
2023-04-02T04:23:50.577Z,52.25
2023-04-02T04:29:17.282Z,51.87
2023-04-02T04:34:26.866Z,51.79
2023-04-02T04:39:46.163Z,51.69
2023-04-02T04:45:23.642Z,52.64
2023-04-02T04:50:37.121Z,52.98
2023-04-02T04:55:44.538Z,52.58
2023-04-02T05:01:03.193Z,52.70
2023-04-02T05:06:30.908Z,52.98
2023-04-02T05:11:47.471Z,53.40
2023-04-02T05:16:57.927Z,53.46
2023-04-02T05:22:18.284Z,53.42
2023-04-02T05:28:06.487Z,53.05
2023-04-02T05:33:18.325Z,53.24
2023-04-02T05:38:25.440Z,53.45
2023-04-02T05:43:30.420Z,53.51
2023-04-02T05:48:43.577Z,53.30
2023-04-02T05:54:14.025Z,53.47
2023-04-02T05:59:27.590Z,53.72
2023-04-02T06:04:55.829Z,53.87
2023-04-02T06:10:36.802Z,53.81
2023-04-02T06:15:39.651Z,53.38
2023-04-02T06:20:46.808Z,53.45
2023-04-02T06:26:26.521Z,54.01
2023-04-02T06:31:36.558Z,54.03
2023-04-02T06:36:41.396Z,53.89
2023-04-02T06:41:45.783Z,53.70
2023-04-02T06:47:23.110Z,53.91
2023-04-02T06:52:37.550Z,54.30
2023-04-02T06:57:43.032Z,54.22
2023-04-02T07:02:46.804Z,54.46
2023-04-02T07:07:49.308Z,54.41
2023-04-02T07:12:52.664Z,54.93
2023-04-02T07:17:59.414Z,55.46
2023-04-02T07:23:02.457Z,56.04
2023-04-02T07:28:05.160Z,56.30
2023-04-02T07:33:07.306Z,56.75
2023-04-02T07:38:09.779Z,55.33
2023-04-02T07:43:12.235Z,55.00
2023-04-02T07:48:15.031Z,55.42
2023-04-02T07:53:30.514Z,55.64
2023-04-02T07:58:33.615Z,55.84
2023-04-02T08:03:35.968Z,57.09
2023-04-02T08:08:38.319Z,56.12
2023-04-02T08:13:40.603Z,56.46
2023-04-02T08:18:42.723Z,56.82
2023-04-02T08:23:45.373Z,57.59
2023-04-02T08:28:47.485Z,57.79
2023-04-02T08:33:49.581Z,57.38
2023-04-02T08:38:51.775Z,56.30
2023-04-02T08:44:18.389Z,55.87
2023-04-02T08:49:36.020Z,56.06
2023-04-02T08:54:38.176Z,56.19
2023-04-02T08:59:43.357Z,56.19
2023-04-02T09:04:45.736Z,56.14
2023-04-02T09:09:50.131Z,56.27
2023-04-02T09:15:22.758Z,57.18
2023-04-02T09:20:26.635Z,57.09
2023-04-02T09:25:32.500Z,57.44
2023-04-02T09:31:02.388Z,56.77
2023-04-02T09:36:04.879Z,56.78
2023-04-02T09:41:18.810Z,56.74
2023-04-02T09:46:26.029Z,56.85
2023-04-02T09:51:36.721Z,56.81
2023-04-02T09:56:40.768Z,57.17
2023-04-02T10:01:50.576Z,56.21
2023-04-02T10:06:58.094Z,55.68
2023-04-02T10:12:02.486Z,55.85
2023-04-02T10:17:27.948Z,55.05
2023-04-02T10:22:30.151Z,55.01
2023-04-02T10:27:40.871Z,54.55
2023-04-02T10:33:00.889Z,54.75
2023-04-02T10:38:14.303Z,55.67
2023-04-02T10:43:51.910Z,55.21
2023-04-02T10:49:12.442Z,55.43
2023-04-02T10:55:05.360Z,55.69
2023-04-02T11:00:19.064Z,56.42
2023-04-02T11:05:58.751Z,56.06
2023-04-02T11:11:20.329Z,55.89
2023-04-02T11:16:22.790Z,55.81
2023-04-02T11:21:30.577Z,56.02
2023-04-02T11:26:46.366Z,55.84
2023-04-02T11:31:51.275Z,55.74
2023-04-02T11:36:53.972Z,55.73
2023-04-02T11:42:09.689Z,55.73
2023-04-02T11:47:16.811Z,55.73
2023-04-02T11:52:59.858Z,56.13
2023-04-02T11:58:17.737Z,56.29
2023-04-02T12:03:37.503Z,56.27
2023-04-02T12:08:58.047Z,56.51
2023-04-02T12:14:01.411Z,56.29
2023-04-02T12:19:09.512Z,56.13
2023-04-02T12:24:21.845Z,56.38
2023-04-02T12:29:27.461Z,56.60
2023-04-02T12:34:30.959Z,56.33
2023-04-02T12:39:34.787Z,56.26
2023-04-02T12:44:37.101Z,56.39
2023-04-02T12:49:41.879Z,56.53
2023-04-02T12:55:06.338Z,56.60
2023-04-02T13:00:20.410Z,56.50
2023-04-02T13:05:42.970Z,56.18
2023-04-02T13:10:45.954Z,56.06
2023-04-02T13:16:20.484Z,55.76
2023-04-02T13:21:30.068Z,55.96
2023-04-02T13:26:32.154Z,56.05
2023-04-02T13:31:34.456Z,56.14
2023-04-02T13:36:37.704Z,56.46
2023-04-02T13:41:43.219Z,57.10
2023-04-02T13:46:45.405Z,57.45
2023-04-02T13:51:50.189Z,57.22
2023-04-02T13:56:53.007Z,57.28
2023-04-02T14:01:59.224Z,56.87
2023-04-02T14:07:28.486Z,56.30
2023-04-02T14:12:33.687Z,56.39
2023-04-02T14:18:00.979Z,56.33
2023-04-02T14:23:33.927Z,56.20
2023-04-02T14:28:43.117Z,56.19
2023-04-02T14:34:03.745Z,56.22
2023-04-02T14:39:33.110Z,56.59
2023-04-02T14:44:56.824Z,56.69
2023-04-02T14:50:10.259Z,56.86
2023-04-02T14:55:24.035Z,56.90
2023-04-02T15:00:37.908Z,56.65
2023-04-02T15:05:54.196Z,56.80
2023-04-02T15:11:21.620Z,57.15
2023-04-02T15:16:26.907Z,56.78
2023-04-02T15:22:13.944Z,55.94
2023-04-02T15:27:30.586Z,55.88
2023-04-02T15:32:32.747Z,55.75
2023-04-02T15:38:12.087Z,55.79
2023-04-02T15:43:20.544Z,55.19
2023-04-02T15:48:28.518Z,55.07
2023-04-02T15:53:48.477Z,54.95
2023-04-02T15:59:28.742Z,54.81
2023-04-02T16:04:37.037Z,55.21
2023-04-02T16:10:10.635Z,55.02
2023-04-02T16:15:31.943Z,55.37
2023-04-02T16:20:44.055Z,55.65
2023-04-02T16:26:27.241Z,55.94
2023-04-02T16:31:50.831Z,56.31
2023-04-02T16:37:10.426Z,56.11
2023-04-02T16:42:49.613Z,56.16
2023-04-02T16:48:36.298Z,56.38
2023-04-02T16:54:16.016Z,56.52
2023-04-02T16:59:35.198Z,56.70
2023-04-02T17:05:11.064Z,56.37
2023-04-02T17:10:42.345Z,56.43
2023-04-02T17:15:51.866Z,56.74
2023-04-02T17:20:54.788Z,56.68
2023-04-02T17:26:02.449Z,56.70
2023-04-02T17:31:13.036Z,56.78
2023-04-02T17:36:26.683Z,56.79
2023-04-02T17:41:43.629Z,56.89
2023-04-02T17:47:13.516Z,56.82
2023-04-02T17:52:33.884Z,56.84
2023-04-02T17:58:01.727Z,56.36
2023-04-02T18:03:51.806Z,56.54
2023-04-02T18:09:04.456Z,56.76
2023-04-02T18:14:24.836Z,57.43
2023-04-02T18:20:16.229Z,57.02
2023-04-02T18:25:18.207Z,57.04
2023-04-02T18:30:58.697Z,57.46
2023-04-02T18:36:11.478Z,56.90
2023-04-02T18:41:16.716Z,56.63
2023-04-02T18:46:33.833Z,56.96
2023-04-02T18:51:39.422Z,56.81
2023-04-02T18:56:42.957Z,56.69
2023-04-02T19:01:49.237Z,56.97
2023-04-02T19:07:03.958Z,57.15
2023-04-02T19:12:21.197Z,57.36
2023-04-02T19:18:01.744Z,57.17
2023-04-02T19:23:03.947Z,57.23
2023-04-02T19:28:20.995Z,57.49
2023-04-02T19:33:26.119Z,58.06
2023-04-02T19:39:08.888Z,58.15
2023-04-02T19:44:13.449Z,58.07
2023-04-02T19:49:28.542Z,57.96
2023-04-02T19:54:30.966Z,58.06
2023-04-02T19:59:33.164Z,57.98
2023-04-02T20:04:35.402Z,57.72
2023-04-02T20:09:37.540Z,57.70
2023-04-02T20:14:39.739Z,57.36
2023-04-02T20:19:42.202Z,56.92
2023-04-02T20:24:44.680Z,55.88
2023-04-02T20:29:46.893Z,56.35
2023-04-02T20:34:49.374Z,56.86
2023-04-02T20:39:51.699Z,56.53
2023-04-02T20:44:53.912Z,55.87
2023-04-02T20:49:56.513Z,56.43
2023-04-02T20:54:58.691Z,55.60
2023-04-02T21:00:02.896Z,54.31
2023-04-02T21:05:05.382Z,54.43
2023-04-02T21:10:07.986Z,54.44
2023-04-02T21:15:12.255Z,55.35
2023-04-02T21:20:14.476Z,55.39
2023-04-02T21:25:16.623Z,55.17
2023-04-02T21:30:18.688Z,55.14
2023-04-02T21:35:20.805Z,55.92
2023-04-02T21:40:22.906Z,55.81
2023-04-02T21:45:25.012Z,55.47
2023-04-02T21:50:27.084Z,55.96
2023-04-02T21:55:29.289Z,56.32
2023-04-02T22:00:31.279Z,56.94
2023-04-02T22:05:33.409Z,57.39
2023-04-02T22:10:36.222Z,57.33
2023-04-02T22:15:38.622Z,57.47
2023-04-02T22:20:41.405Z,56.51
2023-04-02T22:25:43.495Z,56.56
2023-04-02T22:30:46.032Z,56.53
2023-04-02T22:35:52.440Z,56.86
2023-04-02T22:41:04.976Z,56.73
2023-04-02T22:46:09.419Z,56.50
2023-04-02T22:51:13.623Z,57.03
2023-04-02T22:56:22.186Z,56.66
2023-04-02T23:01:27.761Z,56.52
2023-04-02T23:06:30.022Z,56.34
2023-04-02T23:11:32.193Z,56.52
2023-04-02T23:16:34.449Z,56.71
2023-04-02T23:21:36.700Z,56.80
2023-04-02T23:26:39.058Z,56.69
2023-04-02T23:31:41.205Z,57.09
2023-04-02T23:36:43.450Z,57.24
2023-04-02T23:41:45.688Z,57.78
2023-04-02T23:46:47.883Z,57.52
2023-04-02T23:51:50.060Z,57.29
2023-04-02T23:56:52.352Z,57.42
